createdAt,value
2023-06-18T00:02:05.805Z,10.18
2023-06-18T00:04:33.316Z,10.93
2023-06-18T00:07:00.592Z,11.00
2023-06-18T00:09:27.633Z,8.68
2023-06-18T00:11:54.654Z,13.15
2023-06-18T00:14:21.768Z,10.02
2023-06-18T00:16:50.851Z,13.52
2023-06-18T00:19:18.536Z,8.70
2023-06-18T00:21:46.191Z,8.55
2023-06-18T00:24:13.361Z,9.30
2023-06-18T00:26:40.520Z,9.05
2023-06-18T00:29:07.811Z,8.88
2023-06-18T00:31:36.256Z,10.73
2023-06-18T00:34:08.012Z,9.20
2023-06-18T00:36:40.230Z,10.23
2023-06-18T00:39:08.471Z,8.45
2023-06-18T00:41:36.376Z,8.27
2023-06-18T00:44:04.156Z,8.95
2023-06-18T00:46:32.125Z,11.38
2023-06-18T00:48:59.729Z,7.97
2023-06-18T00:51:29.847Z,9.82
2023-06-18T00:53:57.576Z,11.05
2023-06-18T00:56:26.677Z,8.93
2023-06-18T00:58:54.166Z,8.60
2023-06-18T01:01:21.847Z,9.48
2023-06-18T01:03:49.816Z,11.35
2023-06-18T01:06:18.918Z,9.25
2023-06-18T01:08:50.171Z,8.98
2023-06-18T01:11:20.007Z,9.95
2023-06-18T01:13:47.216Z,10.82
2023-06-18T01:16:14.948Z,11.07
2023-06-18T01:18:46.654Z,14.10
2023-06-18T01:21:20.689Z,14.35
2023-06-18T01:23:55.503Z,10.20
2023-06-18T01:26:22.629Z,11.77
2023-06-18T01:28:52.826Z,9.68
2023-06-18T01:31:22.578Z,10.77
2023-06-18T01:33:54.673Z,16.70
2023-06-18T01:36:35.786Z,12.18
2023-06-18T01:39:18.974Z,10.10
2023-06-18T01:41:46.449Z,11.32
2023-06-18T01:44:14.666Z,9.70
2023-06-18T01:46:42.410Z,9.45
2023-06-18T01:49:09.771Z,8.75
2023-06-18T01:51:38.957Z,8.60
2023-06-18T01:54:07.053Z,9.45
2023-06-18T01:56:34.376Z,12.52
2023-06-18T01:59:03.043Z,10.52
2023-06-18T02:01:31.558Z,11.77
2023-06-18T02:03:59.177Z,13.32
2023-06-18T02:06:26.419Z,9.25
2023-06-18T02:08:53.498Z,7.93
2023-06-18T02:11:23.504Z,11.30
2023-06-18T02:13:50.912Z,8.13
2023-06-18T02:16:18.599Z,12.65
2023-06-18T02:18:47.020Z,12.63
2023-06-18T02:21:14.020Z,11.45
2023-06-18T02:23:41.587Z,14.38
2023-06-18T02:26:10.157Z,14.25
2023-06-18T02:28:37.480Z,20.13
2023-06-18T02:31:06.931Z,14.60
2023-06-18T02:33:34.224Z,16.45
2023-06-18T02:36:01.596Z,20.27
2023-06-18T02:38:29.337Z,17.38
2023-06-18T02:40:57.061Z,13.27
2023-06-18T02:43:26.442Z,13.55
2023-06-18T02:45:53.863Z,12.85
2023-06-18T02:48:21.116Z,15.65
2023-06-18T02:50:48.563Z,13.73
2023-06-18T02:53:16.205Z,13.45
2023-06-18T02:55:43.902Z,16.85
2023-06-18T02:58:18.770Z,16.85
2023-06-18T03:00:46.601Z,12.10
2023-06-18T03:03:15.818Z,20.42
2023-06-18T03:05:47.024Z,18.45
2023-06-18T03:08:14.064Z,17.05
2023-06-18T03:10:43.807Z,19.83
2023-06-18T03:13:10.953Z,19.02
2023-06-18T03:15:44.560Z,18.77
2023-06-18T03:18:13.304Z,19.70
2023-06-18T03:20:41.230Z,17.77
2023-06-18T03:23:08.501Z,18.58
2023-06-18T03:25:36.459Z,15.57
2023-06-18T03:28:03.717Z,16.95
2023-06-18T03:30:34.385Z,18.40
2023-06-18T03:33:03.554Z,10.88
2023-06-18T03:35:33.993Z,19.60
2023-06-18T03:38:01.318Z,11.82
2023-06-18T03:40:28.423Z,10.40
2023-06-18T03:42:56.329Z,14.00
2023-06-18T03:45:26.596Z,10.93
2023-06-18T03:47:53.897Z,14.73
2023-06-18T03:50:24.600Z,13.15
2023-06-18T03:52:51.808Z,11.40
2023-06-18T03:55:19.073Z,12.32
2023-06-18T03:57:47.640Z,16.17
2023-06-18T04:00:15.493Z,10.70
2023-06-18T04:02:44.293Z,12.00
2023-06-18T04:05:23.562Z,11.20
2023-06-18T04:07:51.709Z,14.02
2023-06-18T04:10:18.942Z,13.48
2023-06-18T04:12:47.564Z,11.07
2023-06-18T04:15:14.991Z,13.10
2023-06-18T04:17:43.056Z,12.23
2023-06-18T04:20:13.471Z,14.88
2023-06-18T04:22:41.161Z,18.95
2023-06-18T04:25:10.387Z,16.48
2023-06-18T04:27:38.717Z,14.90
2023-06-18T04:30:07.219Z,15.68
2023-06-18T04:32:34.301Z,11.32
2023-06-18T04:35:02.519Z,11.90
2023-06-18T04:37:32.735Z,15.07
2023-06-18T04:39:59.977Z,11.55
2023-06-18T04:42:26.994Z,10.40
2023-06-18T04:44:54.161Z,12.50
2023-06-18T04:47:21.359Z,13.98
2023-06-18T04:49:48.469Z,8.85
2023-06-18T04:52:18.222Z,10.05
2023-06-18T04:54:46.592Z,15.35
2023-06-18T04:57:13.688Z,8.55
2023-06-18T04:59:41.279Z,9.25
2023-06-18T05:02:10.510Z,9.35
2023-06-18T05:04:37.701Z,7.32
2023-06-18T05:07:05.037Z,11.13
2023-06-18T05:09:35.026Z,7.35
2023-06-18T05:12:02.131Z,6.10
2023-06-18T05:14:30.665Z,5.72
2023-06-18T05:16:57.996Z,7.82
2023-06-18T05:19:25.158Z,7.07
2023-06-18T05:21:52.352Z,6.43
2023-06-18T05:24:23.272Z,6.40
2023-06-18T05:26:50.977Z,5.53
2023-06-18T05:29:19.362Z,5.40
2023-06-18T05:31:49.171Z,4.65
2023-06-18T05:34:24.680Z,6.05
2023-06-18T05:36:51.909Z,6.38
2023-06-18T05:39:19.171Z,5.43
2023-06-18T05:41:46.814Z,5.65
2023-06-18T05:44:15.116Z,6.43
2023-06-18T05:46:42.337Z,4.40
2023-06-18T05:49:11.223Z,8.23
2023-06-18T05:51:38.696Z,5.38
2023-06-18T05:54:06.981Z,8.13
2023-06-18T05:56:34.141Z,7.90
2023-06-18T05:59:01.332Z,7.50
2023-06-18T06:01:34.851Z,5.05
2023-06-18T06:04:02.550Z,6.57
2023-06-18T06:06:30.197Z,6.72
2023-06-18T06:08:57.372Z,6.38
2023-06-18T06:11:24.746Z,5.38
2023-06-18T06:13:51.928Z,9.73
2023-06-18T06:16:19.063Z,5.57
2023-06-18T06:18:46.608Z,5.78
2023-06-18T06:21:14.764Z,6.28
2023-06-18T06:23:42.642Z,6.13
2023-06-18T06:26:09.690Z,6.47
2023-06-18T06:28:39.364Z,6.88
2023-06-18T06:31:07.885Z,4.15
2023-06-18T06:33:35.128Z,5.43
2023-06-18T06:36:02.550Z,4.88
2023-06-18T06:38:29.953Z,5.32
2023-06-18T06:40:57.351Z,6.43
2023-06-18T06:43:26.894Z,6.13
2023-06-18T06:48:57.991Z,5.13
2023-06-18T06:51:39.784Z,5.47
2023-06-18T06:54:14.465Z,4.20
2023-06-18T06:56:41.794Z,5.57
2023-06-18T06:59:10.193Z,8.23
2023-06-18T07:01:37.710Z,6.28
2023-06-18T07:04:04.961Z,6.40
2023-06-18T07:06:32.619Z,7.95
2023-06-18T07:09:01.379Z,4.35
2023-06-18T07:11:28.944Z,5.88
2023-06-18T07:13:56.176Z,16.42
2023-06-18T07:16:23.430Z,16.02
2023-06-18T07:18:50.604Z,18.38
2023-06-18T07:21:18.439Z,19.98
2023-06-18T07:23:45.651Z,14.05
2023-06-18T07:26:12.745Z,12.65
2023-06-18T07:28:39.961Z,9.88
2023-06-18T07:31:06.997Z,13.77
2023-06-18T07:33:34.066Z,10.50
2023-06-18T07:36:01.316Z,6.57
2023-06-18T07:38:28.347Z,10.85
2023-06-18T07:40:55.916Z,7.80
2023-06-18T07:43:23.148Z,9.85
2023-06-18T07:45:50.419Z,6.45
2023-06-18T07:48:18.205Z,23.38
2023-06-18T07:50:45.741Z,9.68
2023-06-18T07:53:12.816Z,7.93
2023-06-18T07:55:39.907Z,18.67
2023-06-18T07:58:06.956Z,14.80
2023-06-18T08:00:34.138Z,9.93
2023-06-18T08:03:01.423Z,6.72
2023-06-18T08:05:28.536Z,14.85
2023-06-18T08:07:56.132Z,5.53
2023-06-18T08:10:23.914Z,7.68
2023-06-18T08:12:51.424Z,8.90
2023-06-18T08:15:18.539Z,8.75
2023-06-18T08:17:45.724Z,4.57
2023-06-18T08:20:12.977Z,5.03
2023-06-18T08:22:40.047Z,6.07
2023-06-18T08:25:08.481Z,8.52
2023-06-18T08:27:36.026Z,12.20
2023-06-18T08:30:04.722Z,13.15
2023-06-18T08:32:32.958Z,6.18
2023-06-18T08:35:02.350Z,6.15
2023-06-18T08:37:32.157Z,6.25
2023-06-18T08:39:59.287Z,8.30
2023-06-18T08:42:26.350Z,5.70
2023-06-18T08:44:54.619Z,5.60
2023-06-18T08:47:22.437Z,7.43
2023-06-18T08:49:51.196Z,5.25
2023-06-18T08:52:20.819Z,6.28
2023-06-18T08:54:51.041Z,3.95
2023-06-18T08:57:34.394Z,7.05
2023-06-18T09:00:01.889Z,4.35
2023-06-18T09:02:34.271Z,6.03
2023-06-18T09:05:03.307Z,6.25
2023-06-18T09:07:31.612Z,8.40
2023-06-18T09:09:59.048Z,16.05
2023-06-18T09:12:26.072Z,12.30
2023-06-18T09:14:53.212Z,7.10
2023-06-18T09:17:20.265Z,5.55
2023-06-18T09:19:47.932Z,7.45
2023-06-18T09:22:16.568Z,7.63
2023-06-18T09:24:46.975Z,6.50
2023-06-18T09:27:14.203Z,8.52
2023-06-18T09:29:42.579Z,9.23
2023-06-18T09:32:16.170Z,9.48
2023-06-18T09:34:44.480Z,11.27
2023-06-18T09:37:14.290Z,8.95
2023-06-18T09:39:41.828Z,7.22
2023-06-18T09:42:10.934Z,5.22
2023-06-18T09:44:38.432Z,5.22
2023-06-18T09:47:12.536Z,6.18
2023-06-18T09:49:46.977Z,5.72
2023-06-18T09:52:16.926Z,5.07
2023-06-18T09:54:44.765Z,5.07
2023-06-18T09:57:14.489Z,5.57
2023-06-18T09:59:41.929Z,5.38
2023-06-18T10:02:10.477Z,6.30
2023-06-18T10:04:38.702Z,5.22
2023-06-18T10:07:07.331Z,3.97
2023-06-18T10:09:37.934Z,5.57
2023-06-18T10:12:05.980Z,4.93
2023-06-18T10:14:33.948Z,4.68
2023-06-18T10:17:02.028Z,6.30
2023-06-18T10:19:35.910Z,4.53
2023-06-18T10:22:06.692Z,9.68
2023-06-18T10:24:42.641Z,4.82
2023-06-18T10:27:10.590Z,5.20
2023-06-18T10:29:37.510Z,5.50
2023-06-18T10:32:05.532Z,5.22
2023-06-18T10:34:35.989Z,6.95
2023-06-18T10:37:03.126Z,6.00
2023-06-18T10:39:30.230Z,6.35
2023-06-18T10:41:57.552Z,4.93
2023-06-18T10:44:34.880Z,5.07
2023-06-18T10:47:19.536Z,5.82
2023-06-18T10:50:01.810Z,8.60
2023-06-18T10:52:38.167Z,6.07
2023-06-18T10:55:08.207Z,5.70
2023-06-18T10:58:02.327Z,5.22
2023-06-18T11:00:34.409Z,4.70
2023-06-18T11:03:05.942Z,7.97
2023-06-18T11:05:33.188Z,4.45
2023-06-18T11:08:09.959Z,5.97
2023-06-18T11:10:40.784Z,4.43
2023-06-18T11:13:09.155Z,5.30
2023-06-18T11:15:37.152Z,10.27
2023-06-18T11:18:04.379Z,12.05
2023-06-18T11:20:33.076Z,6.50
2023-06-18T11:23:01.381Z,5.03
2023-06-18T11:25:29.425Z,5.22
2023-06-18T11:27:59.930Z,5.72
2023-06-18T11:30:27.932Z,7.07
2023-06-18T11:32:55.177Z,5.95
2023-06-18T11:35:22.713Z,6.57
2023-06-18T11:37:49.872Z,6.05
2023-06-18T11:40:17.074Z,7.72
2023-06-18T11:42:52.019Z,4.28
2023-06-18T11:45:19.859Z,4.78
2023-06-18T11:47:48.865Z,4.82
2023-06-18T11:50:16.941Z,5.60
2023-06-18T11:52:45.662Z,11.18
2023-06-18T11:55:12.808Z,6.85
2023-06-18T11:57:40.331Z,6.28
2023-06-18T12:00:11.712Z,8.95
2023-06-18T12:02:42.296Z,6.07
2023-06-18T12:05:10.349Z,5.35
2023-06-18T12:07:43.427Z,5.30
2023-06-18T12:10:12.024Z,5.72
2023-06-18T12:12:39.081Z,5.88
2023-06-18T12:15:34.193Z,8.88
2023-06-18T12:18:06.730Z,4.88
2023-06-18T12:20:33.860Z,6.60
2023-06-18T12:23:01.782Z,4.80
2023-06-18T12:25:30.280Z,6.70
2023-06-18T12:27:59.922Z,4.47
2023-06-18T12:30:38.436Z,11.93
2023-06-18T12:33:06.952Z,4.72
2023-06-18T12:35:36.191Z,47.67
2023-06-18T12:38:06.119Z,8.45
2023-06-18T12:40:34.084Z,4.63
2023-06-18T12:43:08.101Z,6.18
2023-06-18T12:45:35.516Z,4.53
2023-06-18T12:48:16.774Z,7.18
2023-06-18T12:50:47.714Z,7.78
2023-06-18T12:53:17.834Z,6.10
2023-06-18T12:55:46.211Z,4.82
2023-06-18T12:58:29.560Z,6.18
2023-06-18T13:01:00.471Z,5.00
2023-06-18T13:03:28.503Z,4.72
2023-06-18T13:05:57.950Z,4.35
2023-06-18T13:08:25.459Z,5.68
2023-06-18T13:10:53.294Z,4.88
2023-06-18T13:13:20.911Z,6.05
2023-06-18T13:15:50.256Z,4.68
2023-06-18T13:18:19.968Z,4.60
2023-06-18T13:20:47.956Z,5.72
2023-06-18T13:23:15.709Z,7.25
2023-06-18T13:25:42.999Z,6.63
2023-06-18T13:28:10.663Z,18.42
2023-06-18T13:30:37.850Z,12.88
2023-06-18T13:33:04.943Z,8.07
2023-06-18T13:35:32.280Z,9.20
2023-06-18T13:37:59.518Z,7.70
2023-06-18T13:40:28.018Z,17.77
2023-06-18T13:42:55.750Z,9.88
2023-06-18T13:45:23.063Z,5.50
2023-06-18T13:47:50.590Z,4.75
2023-06-18T13:50:17.693Z,5.53
2023-06-18T13:52:44.844Z,5.68
2023-06-18T13:55:12.083Z,5.25
2023-06-18T13:57:39.164Z,5.18
2023-06-18T14:00:08.966Z,6.50
2023-06-18T14:02:37.660Z,28.25
2023-06-18T14:05:07.736Z,5.35
2023-06-18T14:07:35.274Z,4.57
2023-06-18T14:10:02.896Z,6.57
2023-06-18T14:12:31.482Z,5.00
2023-06-18T14:14:58.862Z,6.82
2023-06-18T14:17:27.138Z,4.78
2023-06-18T14:19:56.881Z,7.70
2023-06-18T14:22:24.133Z,5.80
2023-06-18T14:24:54.004Z,5.07
2023-06-18T14:27:21.111Z,4.63
2023-06-18T14:29:48.441Z,10.70
2023-06-18T14:32:16.633Z,4.85
2023-06-18T14:34:44.303Z,5.03
2023-06-18T14:37:11.402Z,8.15
2023-06-18T14:39:38.457Z,6.10
2023-06-18T14:42:06.462Z,6.70
2023-06-18T14:44:33.532Z,6.93
2023-06-18T14:47:01.156Z,6.22
2023-06-18T14:49:28.275Z,4.68
2023-06-18T14:51:55.609Z,5.05
2023-06-18T14:54:26.793Z,4.35
2023-06-18T14:56:54.546Z,6.63
2023-06-18T14:59:21.938Z,5.22
2023-06-18T15:01:49.216Z,8.30
2023-06-18T15:04:16.725Z,8.35
2023-06-18T15:06:45.557Z,6.15
2023-06-18T15:09:14.728Z,8.40
2023-06-18T15:11:42.230Z,6.60
2023-06-18T15:14:09.346Z,6.50
2023-06-18T15:16:37.580Z,24.05
2023-06-18T15:19:04.689Z,10.23
2023-06-18T15:21:34.514Z,10.88
2023-06-18T15:24:01.915Z,10.65
2023-06-18T15:26:29.071Z,7.72
2023-06-18T15:28:56.241Z,10.10
2023-06-18T15:31:23.379Z,15.88
2023-06-18T15:33:51.335Z,7.80
2023-06-18T15:36:18.333Z,7.78
2023-06-18T15:38:49.605Z,6.82
2023-06-18T15:41:16.805Z,9.77
2023-06-18T15:43:43.963Z,6.28
2023-06-18T15:46:11.295Z,5.15
2023-06-18T15:48:38.466Z,6.55
2023-06-18T15:51:06.241Z,6.32
2023-06-18T15:53:33.288Z,4.90
2023-06-18T15:56:01.341Z,5.20
2023-06-18T15:58:28.557Z,4.63
2023-06-18T16:00:55.652Z,6.68
2023-06-18T16:03:22.805Z,4.70
2023-06-18T16:05:49.856Z,5.28
2023-06-18T16:08:16.986Z,4.43
2023-06-18T16:10:44.114Z,5.97
2023-06-18T16:13:11.248Z,5.53
2023-06-18T16:15:38.359Z,17.55
2023-06-18T16:18:07.235Z,12.60
2023-06-18T16:20:34.938Z,6.90
2023-06-18T16:23:02.492Z,10.55
2023-06-18T16:25:29.592Z,8.27
2023-06-18T16:28:00.248Z,5.93
2023-06-18T16:30:28.110Z,6.65
2023-06-18T16:32:55.549Z,6.07
2023-06-18T16:35:23.258Z,7.78
2023-06-18T16:37:51.161Z,6.60
2023-06-18T16:40:18.595Z,6.28
2023-06-18T16:42:46.133Z,5.45
2023-06-18T16:45:13.323Z,6.93
2023-06-18T16:47:40.636Z,9.07
2023-06-18T16:50:08.441Z,8.68
2023-06-18T16:52:35.687Z,6.95
2023-06-18T16:55:04.287Z,7.03
2023-06-18T16:57:31.875Z,8.52
2023-06-18T17:00:00.286Z,10.20
2023-06-18T17:02:29.221Z,10.20
2023-06-18T17:04:56.456Z,8.90
2023-06-18T17:07:23.567Z,9.27
2023-06-18T17:09:50.813Z,8.10
2023-06-18T17:12:18.253Z,6.03
2023-06-18T17:14:46.158Z,10.40
2023-06-18T17:17:38.336Z,9.50
2023-06-18T17:20:20.157Z,13.32
2023-06-18T17:22:48.313Z,7.38
2023-06-18T17:25:23.120Z,7.75
2023-06-18T17:27:53.422Z,6.85
2023-06-18T17:30:28.081Z,12.75
2023-06-18T17:33:02.672Z,9.85
2023-06-18T17:35:49.920Z,7.38
2023-06-18T17:38:36.919Z,7.65
2023-06-18T17:41:05.103Z,6.55
2023-06-18T17:43:34.513Z,8.10
2023-06-18T17:46:15.513Z,11.45
2023-06-18T17:48:49.949Z,10.48
2023-06-18T17:51:22.348Z,7.22
2023-06-18T17:53:51.697Z,8.38
2023-06-18T17:56:34.084Z,8.50
2023-06-18T17:59:18.840Z,6.93
2023-06-18T18:01:52.498Z,7.72
2023-06-18T18:04:21.855Z,7.82
2023-06-18T18:06:58.275Z,6.40
2023-06-18T18:09:45.475Z,14.07
2023-06-18T18:12:16.616Z,6.10
2023-06-18T18:15:07.119Z,6.75
2023-06-18T18:17:36.122Z,9.00
2023-06-18T18:20:05.062Z,9.48
2023-06-18T18:22:32.818Z,10.18
2023-06-18T18:25:05.724Z,8.48
2023-06-18T18:27:37.578Z,11.45
2023-06-18T18:30:09.080Z,27.40
2023-06-18T18:32:36.639Z,23.15
2023-06-18T18:35:04.836Z,28.70
2023-06-18T18:37:38.196Z,15.20
2023-06-18T18:40:11.859Z,10.20
2023-06-18T18:42:40.140Z,11.80
2023-06-18T18:45:08.605Z,11.57
2023-06-18T18:47:37.099Z,16.48
2023-06-18T18:50:09.494Z,17.92
2023-06-18T18:52:38.562Z,17.10
2023-06-18T18:55:07.696Z,19.20
2023-06-18T18:57:36.980Z,22.55
2023-06-18T19:00:06.590Z,19.33
2023-06-18T19:02:37.009Z,15.93
2023-06-18T19:05:04.450Z,17.48
2023-06-18T19:07:36.593Z,10.70
2023-06-18T19:10:11.907Z,14.80
2023-06-18T19:12:49.285Z,16.00
2023-06-18T19:15:20.427Z,14.63
2023-06-18T19:17:53.147Z,14.35
2023-06-18T19:20:21.448Z,14.07
2023-06-18T19:22:50.676Z,15.38
2023-06-18T19:25:21.400Z,12.18
2023-06-18T19:27:51.357Z,12.00
2023-06-18T19:30:18.443Z,15.90
2023-06-18T19:32:45.678Z,11.63
2023-06-18T19:35:17.750Z,14.15
2023-06-18T19:37:46.525Z,13.23
2023-06-18T19:40:17.648Z,17.15
2023-06-18T19:42:49.397Z,16.42
2023-06-18T19:45:20.494Z,22.42
2023-06-18T19:47:49.306Z,30.35
2023-06-18T19:53:12.330Z,20.50
2023-06-18T19:55:39.807Z,21.52
2023-06-18T19:58:07.252Z,21.27
2023-06-18T20:00:37.731Z,20.55
2023-06-18T20:03:06.301Z,19.90
2023-06-18T20:05:34.319Z,19.38
2023-06-18T20:08:09.461Z,26.27
2023-06-18T20:10:36.597Z,22.33
2023-06-18T20:13:04.128Z,21.42
2023-06-18T20:15:31.288Z,18.73
2023-06-18T20:18:03.041Z,16.25
2023-06-18T20:20:30.221Z,18.55
2023-06-18T20:22:57.724Z,14.40
2023-06-18T20:25:26.199Z,15.25
2023-06-18T20:27:57.861Z,15.02
2023-06-18T20:30:25.158Z,15.20
2023-06-18T20:32:52.601Z,16.90
2023-06-18T20:35:20.117Z,12.65
2023-06-18T20:37:48.227Z,15.05
2023-06-18T20:40:15.850Z,12.52
2023-06-18T20:42:45.503Z,14.60
2023-06-18T20:45:24.948Z,14.13
2023-06-18T20:47:52.584Z,14.23
2023-06-18T20:50:21.035Z,17.08
2023-06-18T20:52:48.280Z,15.27
2023-06-18T20:55:18.600Z,12.00
2023-06-18T20:57:48.859Z,13.80
2023-06-18T21:00:17.222Z,14.65
2023-06-18T21:02:46.530Z,12.25
2023-06-18T21:05:13.732Z,10.15
2023-06-18T21:07:43.926Z,12.20
2023-06-18T21:10:11.218Z,10.13
2023-06-18T21:12:38.922Z,16.77
2023-06-18T21:15:07.175Z,13.63
2023-06-18T21:17:34.703Z,16.77
2023-06-18T21:20:02.138Z,16.25
2023-06-18T21:22:34.708Z,10.23
2023-06-18T21:25:02.026Z,16.35
2023-06-18T21:27:32.128Z,15.23
2023-06-18T21:29:59.592Z,11.25
2023-06-18T21:32:26.912Z,9.10
2023-06-18T21:34:54.122Z,13.35
2023-06-18T21:37:21.349Z,9.57
2023-06-18T21:39:49.585Z,10.63
2023-06-18T21:42:16.838Z,12.98
2023-06-18T21:44:43.970Z,15.00
2023-06-18T21:47:11.108Z,13.88
2023-06-18T21:49:38.225Z,10.50
2023-06-18T21:52:05.978Z,12.85
2023-06-18T21:54:32.951Z,11.15
2023-06-18T21:57:00.193Z,12.10
2023-06-18T21:59:27.422Z,14.50
2023-06-18T22:01:55.158Z,14.70
2023-06-18T22:04:22.260Z,12.50
2023-06-18T22:06:49.357Z,19.00
2023-06-18T22:09:16.434Z,14.80
2023-06-18T22:11:43.410Z,14.73
2023-06-18T22:14:10.408Z,14.00
2023-06-18T22:16:37.558Z,17.02
2023-06-18T22:19:13.862Z,17.40
2023-06-18T22:24:07.789Z,18.90
2023-06-18T22:26:34.933Z,14.65
2023-06-18T22:29:02.483Z,8.45
2023-06-18T22:31:29.766Z,9.05
2023-06-18T22:33:58.383Z,8.48
2023-06-18T22:36:25.690Z,8.25
2023-06-18T22:38:52.791Z,11.35
2023-06-18T22:41:19.788Z,13.25
2023-06-18T22:43:49.240Z,9.15
2023-06-18T22:46:16.434Z,12.90
2023-06-18T22:48:43.575Z,12.23
2023-06-18T22:51:10.610Z,18.23
2023-06-18T22:53:37.782Z,13.70
2023-06-18T22:56:05.150Z,13.02
2023-06-18T22:58:32.305Z,10.57
2023-06-18T23:00:59.408Z,11.88
2023-06-18T23:03:26.799Z,11.93
2023-06-18T23:05:54.258Z,10.13
2023-06-18T23:08:21.636Z,13.30
2023-06-18T23:10:48.823Z,15.40
2023-06-18T23:13:16.430Z,11.60
2023-06-18T23:15:43.813Z,17.02
2023-06-18T23:18:10.817Z,16.00
2023-06-18T23:20:40.614Z,18.10
2023-06-18T23:23:07.833Z,20.55
2023-06-18T23:25:37.986Z,17.25
2023-06-18T23:28:05.366Z,18.35
2023-06-18T23:30:36.170Z,21.70
2023-06-18T23:33:03.955Z,22.35
2023-06-18T23:35:31.168Z,21.17
2023-06-18T23:37:58.333Z,20.08
2023-06-18T23:40:25.650Z,17.00
2023-06-18T23:42:53.152Z,13.43
2023-06-18T23:45:20.351Z,12.48
2023-06-18T23:47:47.425Z,11.52
2023-06-18T23:50:14.735Z,12.23
2023-06-18T23:52:41.716Z,15.30
2023-06-18T23:55:09.133Z,15.57
2023-06-18T23:57:36.358Z,18.98
